sensor_id;sensor_type;location;lat;lon;timestamp;P1;durP1;ratioP1;P2;durP2;ratioP2
25023;SDS011;13033;50.936;5.334;2024-03-08T00:00:07;30.50;;;16.88;;
25023;SDS011;13033;50.936;5.334;2024-03-08T00:02:40;31.90;;;16.58;;
25023;SDS011;13033;50.936;5.334;2024-03-08T00:05:07;32.33;;;17.33;;
25023;SDS011;13033;50.936;5.334;2024-03-08T00:07:36;33.75;;;16.70;;
25023;SDS011;13033;50.936;5.334;2024-03-08T00:10:05;28.85;;;15.95;;
25023;SDS011;13033;50.936;5.334;2024-03-08T00:12:36;36.08;;;18.02;;
25023;SDS011;13033;50.936;5.334;2024-03-08T00:15:07;33.15;;;16.70;;
25023;SDS011;13033;50.936;5.334;2024-03-08T00:17:34;32.63;;;18.17;;
25023;SDS011;13033;50.936;5.334;2024-03-08T00:20:00;29.35;;;17.25;;
25023;SDS011;13033;50.936;5.334;2024-03-08T00:22:25;35.42;;;18.75;;
25023;SDS011;13033;50.936;5.334;2024-03-08T00:24:51;27.95;;;16.95;;
25023;SDS011;13033;50.936;5.334;2024-03-08T00:27:17;27.73;;;16.85;;
25023;SDS011;13033;50.936;5.334;2024-03-08T00:29:45;28.23;;;16.27;;
25023;SDS011;13033;50.936;5.334;2024-03-08T00:32:12;31.20;;;17.65;;
25023;SDS011;13033;50.936;5.334;2024-03-08T00:34:38;29.40;;;17.33;;
25023;SDS011;13033;50.936;5.334;2024-03-08T00:37:04;30.02;;;18.73;;
25023;SDS011;13033;50.936;5.334;2024-03-08T00:39:30;33.00;;;18.00;;
25023;SDS011;13033;50.936;5.334;2024-03-08T00:41:56;29.42;;;17.45;;
25023;SDS011;13033;50.936;5.334;2024-03-08T00:44:22;31.27;;;18.52;;
25023;SDS011;13033;50.936;5.334;2024-03-08T00:46:48;31.90;;;18.95;;
25023;SDS011;13033;50.936;5.334;2024-03-08T00:49:14;33.15;;;19.23;;
25023;SDS011;13033;50.936;5.334;2024-03-08T00:51:40;31.88;;;18.48;;
25023;SDS011;13033;50.936;5.334;2024-03-08T00:54:06;33.30;;;18.60;;
25023;SDS011;13033;50.936;5.334;2024-03-08T00:56:31;35.70;;;18.20;;
25023;SDS011;13033;50.936;5.334;2024-03-08T00:58:58;29.10;;;16.05;;
25023;SDS011;13033;50.936;5.334;2024-03-08T01:01:25;29.98;;;17.90;;
25023;SDS011;13033;50.936;5.334;2024-03-08T01:03:51;33.20;;;19.23;;
25023;SDS011;13033;50.936;5.334;2024-03-08T01:06:17;32.45;;;18.67;;
25023;SDS011;13033;50.936;5.334;2024-03-08T01:08:43;31.83;;;18.75;;
25023;SDS011;13033;50.936;5.334;2024-03-08T01:11:10;30.30;;;18.30;;
25023;SDS011;13033;50.936;5.334;2024-03-08T01:13:37;31.05;;;18.70;;
25023;SDS011;13033;50.936;5.334;2024-03-08T01:16:03;32.90;;;19.38;;
25023;SDS011;13033;50.936;5.334;2024-03-08T01:18:29;33.50;;;19.42;;
25023;SDS011;13033;50.936;5.334;2024-03-08T01:20:55;31.08;;;19.50;;
25023;SDS011;13033;50.936;5.334;2024-03-08T01:23:21;32.63;;;20.65;;
25023;SDS011;13033;50.936;5.334;2024-03-08T01:25:46;36.92;;;20.55;;
25023;SDS011;13033;50.936;5.334;2024-03-08T01:28:17;33.20;;;20.40;;
25023;SDS011;13033;50.936;5.334;2024-03-08T01:30:42;32.78;;;20.52;;
25023;SDS011;13033;50.936;5.334;2024-03-08T01:33:09;37.20;;;20.95;;
25023;SDS011;13033;50.936;5.334;2024-03-08T01:35:35;35.05;;;21.40;;
25023;SDS011;13033;50.936;5.334;2024-03-08T01:38:00;37.67;;;20.27;;
25023;SDS011;13033;50.936;5.334;2024-03-08T01:40:26;36.30;;;19.65;;
25023;SDS011;13033;50.936;5.334;2024-03-08T01:42:52;31.70;;;19.45;;
25023;SDS011;13033;50.936;5.334;2024-03-08T01:45:18;33.97;;;19.92;;
25023;SDS011;13033;50.936;5.334;2024-03-08T01:47:44;34.35;;;20.58;;
25023;SDS011;13033;50.936;5.334;2024-03-08T01:50:13;37.85;;;21.35;;
25023;SDS011;13033;50.936;5.334;2024-03-08T01:52:39;38.13;;;20.67;;
25023;SDS011;13033;50.936;5.334;2024-03-08T01:55:05;37.63;;;20.50;;
25023;SDS011;13033;50.936;5.334;2024-03-08T01:57:32;33.15;;;20.23;;
25023;SDS011;13033;50.936;5.334;2024-03-08T01:59:59;34.35;;;20.65;;
25023;SDS011;13033;50.936;5.334;2024-03-08T02:02:28;36.33;;;20.60;;
25023;SDS011;13033;50.936;5.334;2024-03-08T02:04:57;34.15;;;20.75;;
25023;SDS011;13033;50.936;5.334;2024-03-08T02:07:23;33.47;;;20.35;;
25023;SDS011;13033;50.936;5.334;2024-03-08T02:09:49;35.90;;;19.73;;
25023;SDS011;13033;50.936;5.334;2024-03-08T02:12:16;35.72;;;20.95;;
25023;SDS011;13033;50.936;5.334;2024-03-08T02:14:41;32.55;;;19.67;;
25023;SDS011;13033;50.936;5.334;2024-03-08T02:17:09;44.55;;;22.13;;
25023;SDS011;13033;50.936;5.334;2024-03-08T02:19:34;33.72;;;20.75;;
25023;SDS011;13033;50.936;5.334;2024-03-08T02:22:01;37.88;;;21.23;;
25023;SDS011;13033;50.936;5.334;2024-03-08T02:24:29;33.42;;;19.10;;
25023;SDS011;13033;50.936;5.334;2024-03-08T02:26:55;37.65;;;21.17;;
25023;SDS011;13033;50.936;5.334;2024-03-08T02:29:21;33.80;;;20.90;;
25023;SDS011;13033;50.936;5.334;2024-03-08T02:31:50;35.25;;;21.00;;
25023;SDS011;13033;50.936;5.334;2024-03-08T02:34:16;36.75;;;21.20;;
25023;SDS011;13033;50.936;5.334;2024-03-08T02:36:42;35.13;;;21.02;;
25023;SDS011;13033;50.936;5.334;2024-03-08T02:39:08;32.50;;;20.13;;
25023;SDS011;13033;50.936;5.334;2024-03-08T02:41:35;36.42;;;20.90;;
25023;SDS011;13033;50.936;5.334;2024-03-08T02:44:01;36.47;;;21.50;;
25023;SDS011;13033;50.936;5.334;2024-03-08T02:46:27;35.80;;;19.67;;
25023;SDS011;13033;50.936;5.334;2024-03-08T02:48:53;38.33;;;19.98;;
25023;SDS011;13033;50.936;5.334;2024-03-08T02:51:18;33.85;;;19.88;;
25023;SDS011;13033;50.936;5.334;2024-03-08T02:53:45;34.00;;;20.15;;
25023;SDS011;13033;50.936;5.334;2024-03-08T02:56:13;38.80;;;21.27;;
25023;SDS011;13033;50.936;5.334;2024-03-08T02:58:41;31.73;;;18.92;;
25023;SDS011;13033;50.936;5.334;2024-03-08T03:01:07;38.35;;;20.83;;
25023;SDS011;13033;50.936;5.334;2024-03-08T03:03:35;35.55;;;20.05;;
25023;SDS011;13033;50.936;5.334;2024-03-08T03:06:01;34.22;;;19.90;;
25023;SDS011;13033;50.936;5.334;2024-03-08T03:08:26;35.40;;;21.15;;
25023;SDS011;13033;50.936;5.334;2024-03-08T03:10:52;33.30;;;19.95;;
25023;SDS011;13033;50.936;5.334;2024-03-08T03:13:18;35.83;;;20.95;;
25023;SDS011;13033;50.936;5.334;2024-03-08T03:15:45;34.60;;;20.35;;
25023;SDS011;13033;50.936;5.334;2024-03-08T03:18:11;37.65;;;21.42;;
25023;SDS011;13033;50.936;5.334;2024-03-08T03:20:37;36.63;;;20.15;;
25023;SDS011;13033;50.936;5.334;2024-03-08T03:23:06;34.33;;;20.17;;
25023;SDS011;13033;50.936;5.334;2024-03-08T03:25:33;38.53;;;21.15;;
25023;SDS011;13033;50.936;5.334;2024-03-08T03:28:00;35.70;;;20.55;;
25023;SDS011;13033;50.936;5.334;2024-03-08T03:30:26;36.53;;;20.77;;
25023;SDS011;13033;50.936;5.334;2024-03-08T03:32:56;37.53;;;21.15;;
25023;SDS011;13033;50.936;5.334;2024-03-08T03:35:25;41.85;;;21.73;;
25023;SDS011;13033;50.936;5.334;2024-03-08T03:37:51;35.58;;;21.00;;
25023;SDS011;13033;50.936;5.334;2024-03-08T03:40:28;38.47;;;21.67;;
25023;SDS011;13033;50.936;5.334;2024-03-08T03:42:54;38.58;;;21.38;;
25023;SDS011;13033;50.936;5.334;2024-03-08T03:45:20;39.58;;;21.27;;
25023;SDS011;13033;50.936;5.334;2024-03-08T03:47:46;35.35;;;20.45;;
25023;SDS011;13033;50.936;5.334;2024-03-08T03:50:12;39.15;;;21.13;;
25023;SDS011;13033;50.936;5.334;2024-03-08T03:52:37;35.15;;;21.35;;
25023;SDS011;13033;50.936;5.334;2024-03-08T03:55:03;39.63;;;21.98;;
25023;SDS011;13033;50.936;5.334;2024-03-08T03:57:30;41.83;;;21.38;;
25023;SDS011;13033;50.936;5.334;2024-03-08T03:59:56;41.13;;;22.33;;
25023;SDS011;13033;50.936;5.334;2024-03-08T04:02:25;36.92;;;20.60;;
25023;SDS011;13033;50.936;5.334;2024-03-08T04:04:52;39.67;;;21.95;;
25023;SDS011;13033;50.936;5.334;2024-03-08T04:07:19;40.78;;;20.90;;
25023;SDS011;13033;50.936;5.334;2024-03-08T04:09:45;37.50;;;20.83;;
25023;SDS011;13033;50.936;5.334;2024-03-08T04:12:11;36.90;;;21.08;;
25023;SDS011;13033;50.936;5.334;2024-03-08T04:14:38;41.22;;;21.20;;
25023;SDS011;13033;50.936;5.334;2024-03-08T04:17:06;34.75;;;20.63;;
25023;SDS011;13033;50.936;5.334;2024-03-08T04:19:33;36.80;;;20.50;;
25023;SDS011;13033;50.936;5.334;2024-03-08T04:21:59;38.08;;;20.15;;
25023;SDS011;13033;50.936;5.334;2024-03-08T04:24:26;39.40;;;20.88;;
25023;SDS011;13033;50.936;5.334;2024-03-08T04:26:52;39.35;;;21.80;;
25023;SDS011;13033;50.936;5.334;2024-03-08T04:29:18;35.72;;;20.95;;
25023;SDS011;13033;50.936;5.334;2024-03-08T04:31:44;35.85;;;19.90;;
25023;SDS011;13033;50.936;5.334;2024-03-08T04:34:10;32.90;;;19.50;;
25023;SDS011;13033;50.936;5.334;2024-03-08T04:36:36;35.13;;;19.98;;
25023;SDS011;13033;50.936;5.334;2024-03-08T04:39:02;40.15;;;21.42;;
25023;SDS011;13033;50.936;5.334;2024-03-08T04:41:28;38.80;;;21.95;;
25023;SDS011;13033;50.936;5.334;2024-03-08T04:43:55;40.45;;;21.20;;
25023;SDS011;13033;50.936;5.334;2024-03-08T04:46:23;36.05;;;20.63;;
25023;SDS011;13033;50.936;5.334;2024-03-08T04:48:49;37.53;;;20.05;;
25023;SDS011;13033;50.936;5.334;2024-03-08T04:51:14;33.97;;;19.85;;
25023;SDS011;13033;50.936;5.334;2024-03-08T04:53:41;38.90;;;21.17;;
25023;SDS011;13033;50.936;5.334;2024-03-08T04:56:07;41.20;;;20.58;;
25023;SDS011;13033;50.936;5.334;2024-03-08T04:58:35;38.28;;;20.67;;
25023;SDS011;13033;50.936;5.334;2024-03-08T05:01:01;39.95;;;22.02;;
25023;SDS011;13033;50.936;5.334;2024-03-08T05:03:27;38.35;;;20.10;;
25023;SDS011;13033;50.936;5.334;2024-03-08T05:05:53;40.75;;;20.77;;
25023;SDS011;13033;50.936;5.334;2024-03-08T05:08:19;38.25;;;21.45;;
25023;SDS011;13033;50.936;5.334;2024-03-08T05:10:44;44.10;;;20.00;;
25023;SDS011;13033;50.936;5.334;2024-03-08T05:13:11;35.97;;;19.48;;
25023;SDS011;13033;50.936;5.334;2024-03-08T05:15:38;37.88;;;20.70;;
25023;SDS011;13033;50.936;5.334;2024-03-08T05:18:04;38.25;;;19.38;;
25023;SDS011;13033;50.936;5.334;2024-03-08T05:20:30;38.55;;;19.77;;
25023;SDS011;13033;50.936;5.334;2024-03-08T05:22:56;35.75;;;19.75;;
25023;SDS011;13033;50.936;5.334;2024-03-08T05:25:25;39.55;;;20.95;;
25023;SDS011;13033;50.936;5.334;2024-03-08T05:27:51;35.42;;;19.83;;
25023;SDS011;13033;50.936;5.334;2024-03-08T05:30:17;37.60;;;19.77;;
25023;SDS011;13033;50.936;5.334;2024-03-08T05:32:43;42.20;;;20.88;;
25023;SDS011;13033;50.936;5.334;2024-03-08T05:35:10;36.50;;;19.90;;
25023;SDS011;13033;50.936;5.334;2024-03-08T05:37:37;41.22;;;20.33;;
25023;SDS011;13033;50.936;5.334;2024-03-08T05:40:04;40.00;;;19.98;;
25023;SDS011;13033;50.936;5.334;2024-03-08T05:42:34;40.08;;;20.92;;
25023;SDS011;13033;50.936;5.334;2024-03-08T05:45:01;38.72;;;20.15;;
25023;SDS011;13033;50.936;5.334;2024-03-08T05:47:27;35.80;;;20.55;;
25023;SDS011;13033;50.936;5.334;2024-03-08T05:49:53;40.42;;;20.55;;
25023;SDS011;13033;50.936;5.334;2024-03-08T05:52:20;39.13;;;20.30;;
25023;SDS011;13033;50.936;5.334;2024-03-08T05:54:46;37.03;;;19.77;;
25023;SDS011;13033;50.936;5.334;2024-03-08T05:57:12;37.70;;;20.23;;
25023;SDS011;13033;50.936;5.334;2024-03-08T05:59:39;38.50;;;20.85;;
25023;SDS011;13033;50.936;5.334;2024-03-08T06:02:05;39.25;;;20.45;;
25023;SDS011;13033;50.936;5.334;2024-03-08T06:04:30;36.47;;;19.98;;
25023;SDS011;13033;50.936;5.334;2024-03-08T06:06:56;44.10;;;21.67;;
25023;SDS011;13033;50.936;5.334;2024-03-08T06:09:23;40.70;;;18.92;;
25023;SDS011;13033;50.936;5.334;2024-03-08T06:11:49;38.03;;;19.33;;
25023;SDS011;13033;50.936;5.334;2024-03-08T06:14:16;41.97;;;20.17;;
25023;SDS011;13033;50.936;5.334;2024-03-08T06:16:45;42.85;;;21.65;;
25023;SDS011;13033;50.936;5.334;2024-03-08T06:19:11;38.58;;;20.35;;
25023;SDS011;13033;50.936;5.334;2024-03-08T06:21:37;40.72;;;19.90;;
25023;SDS011;13033;50.936;5.334;2024-03-08T06:24:03;36.53;;;19.60;;
25023;SDS011;13033;50.936;5.334;2024-03-08T06:26:30;36.78;;;19.38;;
25023;SDS011;13033;50.936;5.334;2024-03-08T06:28:55;40.22;;;21.08;;
25023;SDS011;13033;50.936;5.334;2024-03-08T06:31:22;41.42;;;21.00;;
25023;SDS011;13033;50.936;5.334;2024-03-08T06:33:48;43.17;;;19.17;;
25023;SDS011;13033;50.936;5.334;2024-03-08T06:36:19;40.22;;;20.77;;
25023;SDS011;13033;50.936;5.334;2024-03-08T06:38:46;36.40;;;20.38;;
25023;SDS011;13033;50.936;5.334;2024-03-08T06:41:15;37.55;;;20.65;;
25023;SDS011;13033;50.936;5.334;2024-03-08T06:43:45;41.33;;;20.35;;
25023;SDS011;13033;50.936;5.334;2024-03-08T06:46:14;42.20;;;21.27;;
25023;SDS011;13033;50.936;5.334;2024-03-08T06:48:40;40.33;;;20.00;;
25023;SDS011;13033;50.936;5.334;2024-03-08T06:51:06;37.13;;;19.50;;
25023;SDS011;13033;50.936;5.334;2024-03-08T06:53:32;37.97;;;20.05;;
25023;SDS011;13033;50.936;5.334;2024-03-08T06:56:00;39.00;;;20.55;;
25023;SDS011;13033;50.936;5.334;2024-03-08T06:58:26;40.72;;;20.75;;
25023;SDS011;13033;50.936;5.334;2024-03-08T07:00:52;40.00;;;19.83;;
25023;SDS011;13033;50.936;5.334;2024-03-08T07:03:18;39.53;;;18.52;;
25023;SDS011;13033;50.936;5.334;2024-03-08T07:05:45;42.00;;;21.52;;
25023;SDS011;13033;50.936;5.334;2024-03-08T07:08:11;42.13;;;21.40;;
25023;SDS011;13033;50.936;5.334;2024-03-08T07:10:40;37.67;;;19.45;;
25023;SDS011;13033;50.936;5.334;2024-03-08T07:13:10;41.33;;;18.77;;
25023;SDS011;13033;50.936;5.334;2024-03-08T07:15:36;42.63;;;19.70;;
25023;SDS011;13033;50.936;5.334;2024-03-08T07:18:02;42.03;;;20.00;;
25023;SDS011;13033;50.936;5.334;2024-03-08T07:20:28;31.88;;;15.32;;
25023;SDS011;13033;50.936;5.334;2024-03-08T07:22:53;35.70;;;18.23;;
25023;SDS011;13033;50.936;5.334;2024-03-08T07:25:19;42.78;;;20.90;;
25023;SDS011;13033;50.936;5.334;2024-03-08T07:27:54;35.80;;;18.33;;
25023;SDS011;13033;50.936;5.334;2024-03-08T07:30:21;39.30;;;19.48;;
25023;SDS011;13033;50.936;5.334;2024-03-08T07:33:09;40.83;;;19.98;;
25023;SDS011;13033;50.936;5.334;2024-03-08T07:35:38;40.03;;;19.88;;
25023;SDS011;13033;50.936;5.334;2024-03-08T07:38:05;42.65;;;20.10;;
25023;SDS011;13033;50.936;5.334;2024-03-08T07:40:38;42.75;;;21.45;;
25023;SDS011;13033;50.936;5.334;2024-03-08T07:43:11;35.40;;;18.33;;
25023;SDS011;13033;50.936;5.334;2024-03-08T07:45:37;38.95;;;20.45;;
25023;SDS011;13033;50.936;5.334;2024-03-08T07:48:03;32.53;;;17.80;;
25023;SDS011;13033;50.936;5.334;2024-03-08T07:50:34;36.00;;;19.17;;
25023;SDS011;13033;50.936;5.334;2024-03-08T07:55:32;32.58;;;18.48;;
25023;SDS011;13033;50.936;5.334;2024-03-08T07:58:00;39.58;;;19.50;;
25023;SDS011;13033;50.936;5.334;2024-03-08T08:00:26;38.80;;;19.65;;
25023;SDS011;13033;50.936;5.334;2024-03-08T08:02:52;35.88;;;18.83;;
25023;SDS011;13033;50.936;5.334;2024-03-08T08:05:19;30.67;;;17.02;;
25023;SDS011;13033;50.936;5.334;2024-03-08T08:07:45;36.10;;;19.25;;
25023;SDS011;13033;50.936;5.334;2024-03-08T08:10:14;33.53;;;18.15;;
25023;SDS011;13033;50.936;5.334;2024-03-08T08:12:50;38.20;;;18.33;;
25023;SDS011;13033;50.936;5.334;2024-03-08T08:15:16;35.33;;;18.90;;
25023;SDS011;13033;50.936;5.334;2024-03-08T08:17:43;38.15;;;19.23;;
25023;SDS011;13033;50.936;5.334;2024-03-08T08:20:10;36.63;;;18.85;;
25023;SDS011;13033;50.936;5.334;2024-03-08T08:22:41;36.30;;;17.90;;
25023;SDS011;13033;50.936;5.334;2024-03-08T08:27:38;33.35;;;17.00;;
25023;SDS011;13033;50.936;5.334;2024-03-08T08:30:13;31.92;;;17.42;;
25023;SDS011;13033;50.936;5.334;2024-03-08T08:32:39;35.53;;;18.02;;
25023;SDS011;13033;50.936;5.334;2024-03-08T08:35:07;32.50;;;18.15;;
25023;SDS011;13033;50.936;5.334;2024-03-08T08:37:38;34.95;;;18.50;;
25023;SDS011;13033;50.936;5.334;2024-03-08T08:40:04;31.88;;;18.13;;
25023;SDS011;13033;50.936;5.334;2024-03-08T08:42:33;32.25;;;17.63;;
25023;SDS011;13033;50.936;5.334;2024-03-08T08:44:59;34.80;;;17.33;;
25023;SDS011;13033;50.936;5.334;2024-03-08T08:47:26;31.40;;;17.05;;
25023;SDS011;13033;50.936;5.334;2024-03-08T08:49:59;31.13;;;18.02;;
25023;SDS011;13033;50.936;5.334;2024-03-08T08:52:25;30.35;;;16.92;;
25023;SDS011;13033;50.936;5.334;2024-03-08T08:54:51;28.95;;;16.77;;
25023;SDS011;13033;50.936;5.334;2024-03-08T08:57:17;31.92;;;17.17;;
25023;SDS011;13033;50.936;5.334;2024-03-08T08:59:42;32.40;;;16.13;;
25023;SDS011;13033;50.936;5.334;2024-03-08T09:02:08;30.13;;;17.27;;
25023;SDS011;13033;50.936;5.334;2024-03-08T09:04:34;28.60;;;16.63;;
25023;SDS011;13033;50.936;5.334;2024-03-08T09:07:00;30.50;;;17.08;;
25023;SDS011;13033;50.936;5.334;2024-03-08T09:09:26;29.38;;;16.83;;
25023;SDS011;13033;50.936;5.334;2024-03-08T09:11:52;27.65;;;16.27;;
25023;SDS011;13033;50.936;5.334;2024-03-08T09:14:19;26.48;;;15.30;;
25023;SDS011;13033;50.936;5.334;2024-03-08T09:16:45;31.58;;;17.23;;
25023;SDS011;13033;50.936;5.334;2024-03-08T09:19:12;29.40;;;17.90;;
25023;SDS011;13033;50.936;5.334;2024-03-08T09:21:38;27.70;;;15.73;;
25023;SDS011;13033;50.936;5.334;2024-03-08T09:24:05;26.75;;;15.98;;
25023;SDS011;13033;50.936;5.334;2024-03-08T09:26:32;29.27;;;16.88;;
25023;SDS011;13033;50.936;5.334;2024-03-08T09:28:58;29.95;;;16.85;;
25023;SDS011;13033;50.936;5.334;2024-03-08T09:31:24;29.08;;;16.50;;
25023;SDS011;13033;50.936;5.334;2024-03-08T09:33:51;31.73;;;16.67;;
25023;SDS011;13033;50.936;5.334;2024-03-08T09:36:16;28.80;;;15.73;;
25023;SDS011;13033;50.936;5.334;2024-03-08T09:38:43;35.38;;;17.65;;
25023;SDS011;13033;50.936;5.334;2024-03-08T09:41:09;27.38;;;15.98;;
25023;SDS011;13033;50.936;5.334;2024-03-08T09:43:38;28.38;;;16.60;;
25023;SDS011;13033;50.936;5.334;2024-03-08T09:46:04;30.75;;;16.67;;
25023;SDS011;13033;50.936;5.334;2024-03-08T09:48:31;26.02;;;14.95;;
25023;SDS011;13033;50.936;5.334;2024-03-08T09:50:57;35.97;;;17.40;;
25023;SDS011;13033;50.936;5.334;2024-03-08T09:53:23;28.98;;;16.58;;
25023;SDS011;13033;50.936;5.334;2024-03-08T09:55:49;29.20;;;16.13;;
25023;SDS011;13033;50.936;5.334;2024-03-08T09:58:15;27.20;;;15.07;;
25023;SDS011;13033;50.936;5.334;2024-03-08T10:00:52;29.85;;;16.63;;
25023;SDS011;13033;50.936;5.334;2024-03-08T10:03:19;29.02;;;15.50;;
25023;SDS011;13033;50.936;5.334;2024-03-08T10:05:45;27.67;;;15.82;;
25023;SDS011;13033;50.936;5.334;2024-03-08T10:08:11;27.92;;;15.40;;
25023;SDS011;13033;50.936;5.334;2024-03-08T10:10:38;34.42;;;16.80;;
25023;SDS011;13033;50.936;5.334;2024-03-08T10:13:07;27.58;;;15.65;;
25023;SDS011;13033;50.936;5.334;2024-03-08T10:15:34;33.13;;;15.98;;
25023;SDS011;13033;50.936;5.334;2024-03-08T10:18:00;27.38;;;14.63;;
25023;SDS011;13033;50.936;5.334;2024-03-08T10:20:30;27.52;;;15.70;;
25023;SDS011;13033;50.936;5.334;2024-03-08T10:23:02;27.60;;;16.00;;
25023;SDS011;13033;50.936;5.334;2024-03-08T10:25:33;28.15;;;16.35;;
25023;SDS011;13033;50.936;5.334;2024-03-08T10:27:59;28.25;;;15.35;;
25023;SDS011;13033;50.936;5.334;2024-03-08T10:30:25;30.13;;;16.67;;
25023;SDS011;13033;50.936;5.334;2024-03-08T10:32:50;25.08;;;14.93;;
25023;SDS011;13033;50.936;5.334;2024-03-08T10:35:16;27.90;;;15.25;;
25023;SDS011;13033;50.936;5.334;2024-03-08T10:37:46;24.20;;;15.00;;
25023;SDS011;13033;50.936;5.334;2024-03-08T10:40:17;23.60;;;14.68;;
25023;SDS011;13033;50.936;5.334;2024-03-08T10:50:53;26.98;;;15.32;;
25023;SDS011;13033;50.936;5.334;2024-03-08T10:53:19;25.17;;;15.32;;
25023;SDS011;13033;50.936;5.334;2024-03-08T10:55:47;25.55;;;15.75;;
25023;SDS011;13033;50.936;5.334;2024-03-08T10:58:14;28.77;;;15.63;;
25023;SDS011;13033;50.936;5.334;2024-03-08T11:00:42;29.10;;;15.98;;
25023;SDS011;13033;50.936;5.334;2024-03-08T11:03:11;29.30;;;15.73;;
25023;SDS011;13033;50.936;5.334;2024-03-08T11:06:16;27.77;;;15.95;;
25023;SDS011;13033;50.936;5.334;2024-03-08T11:08:44;27.88;;;15.40;;
25023;SDS011;13033;50.936;5.334;2024-03-08T11:11:24;24.73;;;14.70;;
25023;SDS011;13033;50.936;5.334;2024-03-08T11:13:57;26.77;;;15.43;;
25023;SDS011;13033;50.936;5.334;2024-03-08T11:21:33;27.20;;;15.27;;
25023;SDS011;13033;50.936;5.334;2024-03-08T11:23:59;27.75;;;15.82;;
25023;SDS011;13033;50.936;5.334;2024-03-08T11:26:32;24.92;;;15.45;;
25023;SDS011;13033;50.936;5.334;2024-03-08T11:31:52;26.88;;;15.48;;
25023;SDS011;13033;50.936;5.334;2024-03-08T11:34:28;25.50;;;15.63;;
25023;SDS011;13033;50.936;5.334;2024-03-08T11:36:55;24.13;;;14.88;;
25023;SDS011;13033;50.936;5.334;2024-03-08T11:39:21;25.60;;;15.55;;
25023;SDS011;13033;50.936;5.334;2024-03-08T11:41:49;26.27;;;15.90;;
25023;SDS011;13033;50.936;5.334;2024-03-08T11:44:14;25.15;;;15.07;;
25023;SDS011;13033;50.936;5.334;2024-03-08T11:46:42;27.13;;;15.57;;
25023;SDS011;13033;50.936;5.334;2024-03-08T11:49:12;22.20;;;14.35;;
25023;SDS011;13033;50.936;5.334;2024-03-08T11:51:41;27.58;;;15.65;;
25023;SDS011;13033;50.936;5.334;2024-03-08T11:54:10;24.40;;;15.55;;
25023;SDS011;13033;50.936;5.334;2024-03-08T11:56:40;24.08;;;14.95;;
25023;SDS011;13033;50.936;5.334;2024-03-08T11:59:11;25.27;;;15.40;;
25023;SDS011;13033;50.936;5.334;2024-03-08T12:01:40;25.40;;;14.98;;
25023;SDS011;13033;50.936;5.334;2024-03-08T12:04:06;25.45;;;14.55;;
25023;SDS011;13033;50.936;5.334;2024-03-08T12:06:38;25.00;;;14.80;;
25023;SDS011;13033;50.936;5.334;2024-03-08T12:09:09;24.05;;;14.48;;
25023;SDS011;13033;50.936;5.334;2024-03-08T12:11:36;23.25;;;14.48;;
25023;SDS011;13033;50.936;5.334;2024-03-08T12:14:02;25.13;;;14.55;;
25023;SDS011;13033;50.936;5.334;2024-03-08T12:16:29;26.35;;;15.15;;
25023;SDS011;13033;50.936;5.334;2024-03-08T12:18:55;28.20;;;14.88;;
25023;SDS011;13033;50.936;5.334;2024-03-08T12:21:21;27.08;;;14.50;;
25023;SDS011;13033;50.936;5.334;2024-03-08T12:24:10;25.45;;;15.27;;
25023;SDS011;13033;50.936;5.334;2024-03-08T12:26:36;23.17;;;15.18;;
25023;SDS011;13033;50.936;5.334;2024-03-08T12:29:23;24.80;;;15.05;;
25023;SDS011;13033;50.936;5.334;2024-03-08T12:31:54;28.17;;;14.75;;
25023;SDS011;13033;50.936;5.334;2024-03-08T12:34:23;27.02;;;14.52;;
25023;SDS011;13033;50.936;5.334;2024-03-08T12:36:50;24.70;;;15.10;;
25023;SDS011;13033;50.936;5.334;2024-03-08T12:39:19;24.92;;;15.27;;
25023;SDS011;13033;50.936;5.334;2024-03-08T12:41:51;26.20;;;15.43;;
25023;SDS011;13033;50.936;5.334;2024-03-08T12:44:22;24.80;;;14.73;;
25023;SDS011;13033;50.936;5.334;2024-03-08T12:46:48;28.83;;;14.55;;
25023;SDS011;13033;50.936;5.334;2024-03-08T12:49:14;24.10;;;14.40;;
25023;SDS011;13033;50.936;5.334;2024-03-08T12:51:43;22.08;;;13.85;;
25023;SDS011;13033;50.936;5.334;2024-03-08T12:54:10;22.92;;;14.55;;
25023;SDS011;13033;50.936;5.334;2024-03-08T12:56:36;21.63;;;14.07;;
25023;SDS011;13033;50.936;5.334;2024-03-08T12:59:03;25.13;;;13.65;;
25023;SDS011;13033;50.936;5.334;2024-03-08T13:01:30;26.25;;;14.93;;
25023;SDS011;13033;50.936;5.334;2024-03-08T13:04:02;24.30;;;13.98;;
25023;SDS011;13033;50.936;5.334;2024-03-08T13:06:29;26.05;;;14.75;;
25023;SDS011;13033;50.936;5.334;2024-03-08T13:08:56;24.67;;;14.07;;
25023;SDS011;13033;50.936;5.334;2024-03-08T13:11:23;24.27;;;14.05;;
25023;SDS011;13033;50.936;5.334;2024-03-08T13:13:52;24.08;;;14.88;;
25023;SDS011;13033;50.936;5.334;2024-03-08T13:16:18;23.25;;;14.13;;
25023;SDS011;13033;50.936;5.334;2024-03-08T13:18:44;27.30;;;14.40;;
25023;SDS011;13033;50.936;5.334;2024-03-08T13:21:13;25.13;;;14.68;;
25023;SDS011;13033;50.936;5.334;2024-03-08T13:23:40;23.50;;;14.70;;
25023;SDS011;13033;50.936;5.334;2024-03-08T13:26:10;24.83;;;14.13;;
25023;SDS011;13033;50.936;5.334;2024-03-08T13:28:40;27.08;;;13.88;;
25023;SDS011;13033;50.936;5.334;2024-03-08T13:31:21;19.65;;;12.40;;
25023;SDS011;13033;50.936;5.334;2024-03-08T13:33:47;21.38;;;12.82;;
25023;SDS011;13033;50.936;5.334;2024-03-08T13:36:14;19.85;;;13.15;;
25023;SDS011;13033;50.936;5.334;2024-03-08T13:38:43;27.42;;;13.95;;
25023;SDS011;13033;50.936;5.334;2024-03-08T13:41:13;23.75;;;13.40;;
25023;SDS011;13033;50.936;5.334;2024-03-08T13:43:42;23.33;;;13.68;;
25023;SDS011;13033;50.936;5.334;2024-03-08T13:46:10;22.48;;;14.35;;
25023;SDS011;13033;50.936;5.334;2024-03-08T13:48:36;26.65;;;14.32;;
25023;SDS011;13033;50.936;5.334;2024-03-08T13:51:06;20.42;;;13.27;;
25023;SDS011;13033;50.936;5.334;2024-03-08T13:53:35;22.77;;;14.02;;
25023;SDS011;13033;50.936;5.334;2024-03-08T13:56:04;22.23;;;14.13;;
25023;SDS011;13033;50.936;5.334;2024-03-08T13:58:36;24.90;;;14.00;;
25023;SDS011;13033;50.936;5.334;2024-03-08T14:01:02;26.73;;;14.27;;
25023;SDS011;13033;50.936;5.334;2024-03-08T14:03:30;21.92;;;12.90;;
25023;SDS011;13033;50.936;5.334;2024-03-08T14:05:57;24.73;;;13.68;;
25023;SDS011;13033;50.936;5.334;2024-03-08T14:08:23;21.75;;;13.05;;
25023;SDS011;13033;50.936;5.334;2024-03-08T14:10:49;23.67;;;12.68;;
25023;SDS011;13033;50.936;5.334;2024-03-08T14:13:18;21.42;;;13.15;;
25023;SDS011;13033;50.936;5.334;2024-03-08T14:15:44;21.00;;;12.98;;
25023;SDS011;13033;50.936;5.334;2024-03-08T14:18:11;21.42;;;13.98;;
25023;SDS011;13033;50.936;5.334;2024-03-08T14:20:38;19.80;;;12.13;;
25023;SDS011;13033;50.936;5.334;2024-03-08T14:23:04;26.98;;;14.70;;
25023;SDS011;13033;50.936;5.334;2024-03-08T14:25:33;29.73;;;14.60;;
25023;SDS011;13033;50.936;5.334;2024-03-08T14:27:59;20.45;;;13.27;;
25023;SDS011;13033;50.936;5.334;2024-03-08T14:30:29;22.05;;;13.32;;
25023;SDS011;13033;50.936;5.334;2024-03-08T14:33:06;22.77;;;13.25;;
25023;SDS011;13033;50.936;5.334;2024-03-08T14:35:37;21.02;;;13.07;;
25023;SDS011;13033;50.936;5.334;2024-03-08T14:38:03;17.95;;;11.13;;
25023;SDS011;13033;50.936;5.334;2024-03-08T14:40:29;22.33;;;12.70;;
25023;SDS011;13033;50.936;5.334;2024-03-08T14:42:56;23.92;;;12.95;;